Ship Status Report: callsign KN6FG

sailwx.info

Track history (hours):
 
Tides and Currents Weather Stations Pressure Air Temp Water Temp Dewpoint Dewpoint Depression Visibility Wind Speed Wind Dir Waves Ship Positions

Callsign KN6FG (name unknown)

Information provided via the YOTREPS network of cruising yachts.

Last reported at 2014-Oct-19 03:20 UTC. Time now 2014-Oct-21 10:28 UTC.
Position S 30°38' E 173°30'.

Wind from 248 at 10 knots

Waves 1.0 meters (3 feet)

Barometer 1018.0 mb

Date/timePositionNaut miles runAvg speedWind from/ knotsBaromVisibWave heightAir tempDewpointWater temp
2014-Oct-19 03:20S 30°38' E 173°30'95 4.0 248 / 101018.0 1.0
2014-Oct-18 03:20S 29°27' E 174°43'118 4.9 045 / 121021.0 1.0
2014-Oct-17 03:20S 28°03' E 176°17'131 5.4 068 / 151021.0 1.5
2014-Oct-16 03:20S 25°57' E 176°56'121 5.1 090 / 181021.0 2.0
2014-Oct-15 03:30S 24°17' E 178°12'97 4.0 113 / 201016.0 1.5
2014-Oct-14 03:20S 22°56' E 179°11'48 2.0 203 / 101012.0 0.5
2014-Oct-13 03:20S 22°09' E 179°22'104 4.3 225 / 121008.0 1.0
2014-Oct-12 03:20S 20°55' E 178°03'83 3.5 180 / 71007.0 1.0
2014-Oct-11 03:30S 19°43' E 177°20'80 3.3 203 / 121004.0 0.5
2014-Oct-10 03:20S 18°23' E 177°17'   270 / 101003.0 0.5
Track history (hours):
 
Tides and Currents Weather Stations Pressure Air Temp Water Temp Dewpoint Dewpoint Depression Visibility Wind Speed Wind Dir Waves Ship Positions

Callsign KN6FG (name unknown)

Information provided via the YOTREPS network of cruising yachts.

Last reported at 2014-Oct-19 03:20 UTC. Time now 2014-Oct-21 10:28 UTC.
Position S 30°38' E 173°30'.

Wind from 248 at 10 knots

Waves 1.0 meters (3 feet)

Barometer 1018.0 mb

Date/timePositionNaut miles runAvg speedWind from/ knotsBaromVisibWave heightAir tempDewpointWater temp
2014-Oct-19 03:20S 30°38' E 173°30'95 4.0 248 / 101018.0 1.0
2014-Oct-18 03:20S 29°27' E 174°43'118 4.9 045 / 121021.0 1.0
2014-Oct-17 03:20S 28°03' E 176°17'131 5.4 068 / 151021.0 1.5
2014-Oct-16 03:20S 25°57' E 176°56'121 5.1 090 / 181021.0 2.0
2014-Oct-15 03:30S 24°17' E 178°12'97 4.0 113 / 201016.0 1.5
2014-Oct-14 03:20S 22°56' E 179°11'48 2.0 203 / 101012.0 0.5
2014-Oct-13 03:20S 22°09' E 179°22'104 4.3 225 / 121008.0 1.0
2014-Oct-12 03:20S 20°55' E 178°03'83 3.5 180 / 71007.0 1.0
2014-Oct-11 03:30S 19°43' E 177°20'80 3.3 203 / 121004.0 0.5
2014-Oct-10 03:20S 18°23' E 177°17'   270 / 101003.0 0.5

Dump ship's entire track history